sensor_id;sensor_type;location;lat;lon;timestamp;pressure;altitude;pressure_sealevel;temperature;humidity
65758;BME280;52495;52.208;5.158;2023-05-10T00:00:39;100760.78;;;13.55;100.00
65758;BME280;52495;52.208;5.158;2023-05-10T00:03:06;100752.19;;;13.53;100.00
65758;BME280;52495;52.208;5.158;2023-05-10T00:05:33;100747.06;;;13.51;100.00
65758;BME280;52495;52.208;5.158;2023-05-10T00:07:59;100751.38;;;13.50;100.00
65758;BME280;52495;52.208;5.158;2023-05-10T00:10:26;100743.75;;;13.46;100.00
65758;BME280;52495;52.208;5.158;2023-05-10T00:12:53;100749.00;;;13.44;100.00
65758;BME280;52495;52.208;5.158;2023-05-10T00:15:21;100744.72;;;13.43;100.00
65758;BME280;52495;52.208;5.158;2023-05-10T00:17:48;100742.06;;;13.45;100.00
65758;BME280;52495;52.208;5.158;2023-05-10T00:20:14;100742.25;;;13.37;100.00
65758;BME280;52495;52.208;5.158;2023-05-10T00:22:41;100744.81;;;13.39;100.00
65758;BME280;52495;52.208;5.158;2023-05-10T00:25:09;100743.06;;;13.39;100.00
65758;BME280;52495;52.208;5.158;2023-05-10T00:27:35;100744.81;;;13.39;100.00
65758;BME280;52495;52.208;5.158;2023-05-10T00:30:03;100747.41;;;13.39;100.00
65758;BME280;52495;52.208;5.158;2023-05-10T00:32:31;100750.09;;;13.35;100.00
65758;BME280;52495;52.208;5.158;2023-05-10T00:34:58;100743.16;;;13.36;100.00
65758;BME280;52495;52.208;5.158;2023-05-10T00:37:26;100750.13;;;13.34;100.00
65758;BME280;52495;52.208;5.158;2023-05-10T00:39:54;100746.69;;;13.33;100.00
65758;BME280;52495;52.208;5.158;2023-05-10T00:42:20;100748.44;;;13.33;100.00
65758;BME280;52495;52.208;5.158;2023-05-10T00:44:48;100752.78;;;13.32;100.00
65758;BME280;52495;52.208;5.158;2023-05-10T00:47:15;100752.72;;;13.34;100.00
65758;BME280;52495;52.208;5.158;2023-05-10T00:49:44;100751.88;;;13.33;100.00
65758;BME280;52495;52.208;5.158;2023-05-10T00:52:11;100749.19;;;13.36;100.00
65758;BME280;52495;52.208;5.158;2023-05-10T00:54:38;100761.28;;;13.38;100.00
65758;BME280;52495;52.208;5.158;2023-05-10T00:57:05;100753.50;;;13.38;100.00
65758;BME280;52495;52.208;5.158;2023-05-10T00:59:33;100757.81;;;13.37;100.00
65758;BME280;52495;52.208;5.158;2023-05-10T01:02:00;100760.41;;;13.37;100.00
65758;BME280;52495;52.208;5.158;2023-05-10T01:04:29;100756.97;;;13.36;100.00
65758;BME280;52495;52.208;5.158;2023-05-10T01:06:58;100756.97;;;13.36;100.00
65758;BME280;52495;52.208;5.158;2023-05-10T01:09:25;100757.81;;;13.37;100.00
65758;BME280;52495;52.208;5.158;2023-05-10T01:11:54;100768.16;;;13.39;100.00
65758;BME280;52495;52.208;5.158;2023-05-10T01:14:21;100765.66;;;13.35;100.00
65758;BME280;52495;52.208;5.158;2023-05-10T01:16:49;100758.78;;;13.34;100.00
65758;BME280;52495;52.208;5.158;2023-05-10T01:19:19;100763.97;;;13.34;100.00
65758;BME280;52495;52.208;5.158;2023-05-10T01:21:53;100754.63;;;13.29;100.00
65758;BME280;52495;52.208;5.158;2023-05-10T01:28:00;100762.34;;;13.30;100.00
65758;BME280;52495;52.208;5.158;2023-05-10T01:30:46;100756.22;;;13.33;100.00
65758;BME280;52495;52.208;5.158;2023-05-10T01:33:23;100763.97;;;13.34;100.00
65758;BME280;52495;52.208;5.158;2023-05-10T01:35:55;100754.41;;;13.36;100.00
65758;BME280;52495;52.208;5.158;2023-05-10T01:38:31;100759.50;;;13.40;100.00
65758;BME280;52495;52.208;5.158;2023-05-10T01:41:09;100751.72;;;13.40;100.00
65758;BME280;52495;52.208;5.158;2023-05-10T01:43:44;100755.16;;;13.40;100.00
65758;BME280;52495;52.208;5.158;2023-05-10T01:46:20;100758.63;;;13.41;100.00
65758;BME280;52495;52.208;5.158;2023-05-10T01:48:52;100762.06;;;13.41;100.00
65758;BME280;52495;52.208;5.158;2023-05-10T01:51:23;100759.53;;;13.38;100.00
65758;BME280;52495;52.208;5.158;2023-05-10T01:53:58;100757.81;;;13.37;100.00
65758;BME280;52495;52.208;5.158;2023-05-10T01:56:26;100761.28;;;13.38;100.00
65758;BME280;52495;52.208;5.158;2023-05-10T01:58:55;100774.28;;;13.36;100.00
65758;BME280;52495;52.208;5.158;2023-05-10T02:01:23;100762.31;;;13.32;100.00
65758;BME280;52495;52.208;5.158;2023-05-10T02:03:53;100765.00;;;13.29;100.00
65758;BME280;52495;52.208;5.158;2023-05-10T02:06:22;100765.16;;;13.23;100.00
65758;BME280;52495;52.208;5.158;2023-05-10T02:08:52;100768.47;;;13.28;100.00
65758;BME280;52495;52.208;5.158;2023-05-10T02:11:20;100772.72;;;13.30;100.00
65758;BME280;52495;52.208;5.158;2023-05-10T02:13:49;100778.78;;;13.31;100.00
65758;BME280;52495;52.208;5.158;2023-05-10T02:16:18;100769.41;;;13.25;100.00
65758;BME280;52495;52.208;5.158;2023-05-10T02:18:48;100771.91;;;13.28;100.00
65758;BME280;52495;52.208;5.158;2023-05-10T02:21:19;100775.38;;;13.29;100.00
65758;BME280;52495;52.208;5.158;2023-05-10T02:23:48;100779.59;;;13.31;100.00
65758;BME280;52495;52.208;5.158;2023-05-10T02:26:18;100781.34;;;13.31;100.00
65758;BME280;52495;52.208;5.158;2023-05-10T02:28:48;100783.16;;;13.29;100.00
65758;BME280;52495;52.208;5.158;2023-05-10T02:31:17;100787.56;;;13.25;100.00
65758;BME280;52495;52.208;5.158;2023-05-10T02:33:45;100785.84;;;13.24;100.00
65758;BME280;52495;52.208;5.158;2023-05-10T02:36:12;100789.78;;;13.08;100.00
65758;BME280;52495;52.208;5.158;2023-05-10T02:38:42;100793.91;;;13.15;100.00
65758;BME280;52495;52.208;5.158;2023-05-10T02:41:10;100794.13;;;13.07;100.00
65758;BME280;52495;52.208;5.158;2023-05-10T02:43:39;100797.81;;;12.98;100.00
65758;BME280;52495;52.208;5.158;2023-05-10T02:46:07;100794.44;;;12.96;100.00
65758;BME280;52495;52.208;5.158;2023-05-10T02:48:34;100800.78;;;12.86;100.00
65758;BME280;52495;52.208;5.158;2023-05-10T02:51:05;100805.91;;;12.87;100.00
65758;BME280;52495;52.208;5.158;2023-05-10T02:53:35;100805.34;;;12.76;100.00
65758;BME280;52495;52.208;5.158;2023-05-10T02:56:11;100799.19;;;12.80;100.00
65758;BME280;52495;52.208;5.158;2023-05-10T02:58:39;100802.91;;;12.70;100.00
65758;BME280;52495;52.208;5.158;2023-05-10T03:01:06;100799.47;;;12.69;100.00
65758;BME280;52495;52.208;5.158;2023-05-10T03:03:34;100805.97;;;12.53;100.00
65758;BME280;52495;52.208;5.158;2023-05-10T03:06:00;100803.16;;;12.60;100.00
65758;BME280;52495;52.208;5.158;2023-05-10T03:08:28;100801.41;;;12.61;100.00
65758;BME280;52495;52.208;5.158;2023-05-10T03:11:08;100797.00;;;12.65;100.00
65758;BME280;52495;52.208;5.158;2023-05-10T03:13:48;100802.28;;;12.62;100.00
65758;BME280;52495;52.208;5.158;2023-05-10T03:16:24;100795.34;;;12.62;100.00
65758;BME280;52495;52.208;5.158;2023-05-10T03:18:56;100796.16;;;12.64;100.00
65758;BME280;52495;52.208;5.158;2023-05-10T03:21:27;100796.22;;;12.61;100.00
65758;BME280;52495;52.208;5.158;2023-05-10T03:23:58;100809.31;;;12.56;100.00
65758;BME280;52495;52.208;5.158;2023-05-10T03:26:28;100793.00;;;12.53;100.00
65758;BME280;52495;52.208;5.158;2023-05-10T03:29:06;100806.72;;;12.56;100.00
65758;BME280;52495;52.208;5.158;2023-05-10T03:31:33;100807.59;;;12.55;100.00
65758;BME280;52495;52.208;5.158;2023-05-10T03:34:01;100804.94;;;12.58;100.00
65758;BME280;52495;52.208;5.158;2023-05-10T03:36:27;100811.97;;;12.53;100.00
65758;BME280;52495;52.208;5.158;2023-05-10T03:38:55;100811.84;;;12.58;100.00
65758;BME280;52495;52.208;5.158;2023-05-10T03:41:22;100814.41;;;12.59;100.00
65758;BME280;52495;52.208;5.158;2023-05-10T03:43:50;100817.09;;;12.56;100.00
65758;BME280;52495;52.208;5.158;2023-05-10T03:46:17;100814.63;;;12.52;100.00
65758;BME280;52495;52.208;5.158;2023-05-10T03:48:44;100821.50;;;12.53;100.00
65758;BME280;52495;52.208;5.158;2023-05-10T03:51:11;100825.81;;;12.52;100.00
65758;BME280;52495;52.208;5.158;2023-05-10T03:53:39;100823.28;;;12.51;100.00
65758;BME280;52495;52.208;5.158;2023-05-10T03:56:06;100819.81;;;12.50;100.00
65758;BME280;52495;52.208;5.158;2023-05-10T03:58:32;100824.31;;;12.43;100.00
65758;BME280;52495;52.208;5.158;2023-05-10T04:01:01;100822.59;;;12.44;100.00
65758;BME280;52495;52.208;5.158;2023-05-10T04:03:27;100829.38;;;12.48;100.00
65758;BME280;52495;52.208;5.158;2023-05-10T04:05:59;100821.50;;;12.53;100.00
65758;BME280;52495;52.208;5.158;2023-05-10T04:08:26;100828.53;;;12.48;100.00
65758;BME280;52495;52.208;5.158;2023-05-10T04:10:53;100820.72;;;12.49;100.00
65758;BME280;52495;52.208;5.158;2023-05-10T04:13:19;100819.25;;;12.39;100.00
65758;BME280;52495;52.208;5.158;2023-05-10T04:15:46;100821.66;;;12.47;100.00
65758;BME280;52495;52.208;5.158;2023-05-10T04:18:14;100818.94;;;12.51;100.00
65758;BME280;52495;52.208;5.158;2023-05-10T04:20:42;100823.34;;;12.48;100.00
65758;BME280;52495;52.208;5.158;2023-05-10T04:23:09;100821.50;;;12.53;100.00
65758;BME280;52495;52.208;5.158;2023-05-10T04:25:36;100829.22;;;12.54;100.00
65758;BME280;52495;52.208;5.158;2023-05-10T04:28:03;100831.03;;;12.51;100.00
65758;BME280;52495;52.208;5.158;2023-05-10T04:30:29;100827.75;;;12.44;100.00
65758;BME280;52495;52.208;5.158;2023-05-10T04:32:56;100825.81;;;12.52;100.00
65758;BME280;52495;52.208;5.158;2023-05-10T04:35:24;100826.00;;;12.44;100.00
65758;BME280;52495;52.208;5.158;2023-05-10T04:37:51;100836.09;;;12.55;100.00
65758;BME280;52495;52.208;5.158;2023-05-10T04:40:18;100832.63;;;12.56;100.00
65758;BME280;52495;52.208;5.158;2023-05-10T04:42:45;100830.91;;;12.55;100.00
65758;BME280;52495;52.208;5.158;2023-05-10T04:45:12;100834.41;;;12.54;100.00
65758;BME280;52495;52.208;5.158;2023-05-10T04:47:39;100837.25;;;12.43;100.00
65758;BME280;52495;52.208;5.158;2023-05-10T04:50:07;100831.25;;;12.43;100.00
65758;BME280;52495;52.208;5.158;2023-05-10T04:52:35;100831.25;;;12.41;100.00
65758;BME280;52495;52.208;5.158;2023-05-10T04:55:03;100840.59;;;12.47;100.00
65758;BME280;52495;52.208;5.158;2023-05-10T04:57:29;100839.16;;;12.37;100.00
65758;BME280;52495;52.208;5.158;2023-05-10T04:59:56;100846.16;;;12.32;100.00
65758;BME280;52495;52.208;5.158;2023-05-10T05:02:23;100847.84;;;12.34;100.00
65758;BME280;52495;52.208;5.158;2023-05-10T05:04:50;100853.88;;;12.35;100.00
65758;BME280;52495;52.208;5.158;2023-05-10T05:07:16;100845.97;;;12.39;100.00
65758;BME280;52495;52.208;5.158;2023-05-10T05:09:45;100858.09;;;12.39;100.00
65758;BME280;52495;52.208;5.158;2023-05-10T05:12:11;100859.22;;;12.27;100.00
65758;BME280;52495;52.208;5.158;2023-05-10T05:14:39;100858.75;;;12.11;100.00
65758;BME280;52495;52.208;5.158;2023-05-10T05:17:06;100860.28;;;12.20;100.00
65758;BME280;52495;52.208;5.158;2023-05-10T05:19:33;100874.44;;;12.41;100.00
65758;BME280;52495;52.208;5.158;2023-05-10T05:22:01;100869.00;;;12.16;100.00
65758;BME280;52495;52.208;5.158;2023-05-10T05:24:28;100876.75;;;12.16;100.00
65758;BME280;52495;52.208;5.158;2023-05-10T05:26:56;100872.72;;;12.04;100.00
65758;BME280;52495;52.208;5.158;2023-05-10T05:29:22;100875.06;;;12.13;100.00
65758;BME280;52495;52.208;5.158;2023-05-10T05:31:49;100891.59;;;12.09;100.00
65758;BME280;52495;52.208;5.158;2023-05-10T05:34:16;100885.44;;;12.13;100.00
65758;BME280;52495;52.208;5.158;2023-05-10T05:36:43;100889.00;;;12.07;100.00
65758;BME280;52495;52.208;5.158;2023-05-10T05:39:09;100894.38;;;11.98;100.00
65758;BME280;52495;52.208;5.158;2023-05-10T05:41:36;100898.78;;;11.93;100.00
65758;BME280;52495;52.208;5.158;2023-05-10T05:44:04;100895.22;;;12.00;100.00
65758;BME280;52495;52.208;5.158;2023-05-10T05:46:31;100893.28;;;12.10;100.00
65758;BME280;52495;52.208;5.158;2023-05-10T05:48:57;100893.25;;;12.11;100.00
65758;BME280;52495;52.208;5.158;2023-05-10T05:51:24;100895.66;;;12.19;100.00
65758;BME280;52495;52.208;5.158;2023-05-10T05:53:51;100902.47;;;12.23;100.00
65758;BME280;52495;52.208;5.158;2023-05-10T05:56:18;100899.75;;;12.29;100.00
65758;BME280;52495;52.208;5.158;2023-05-10T05:58:49;100903.09;;;12.33;100.00
65758;BME280;52495;52.208;5.158;2023-05-10T06:01:17;100900.72;;;12.24;100.00
65758;BME280;52495;52.208;5.158;2023-05-10T06:03:44;100899.75;;;12.29;100.00
65758;BME280;52495;52.208;5.158;2023-05-10T06:06:11;100902.34;;;12.29;100.00
65758;BME280;52495;52.208;5.158;2023-05-10T06:08:38;100906.59;;;12.30;100.00
65758;BME280;52495;52.208;5.158;2023-05-10T06:11:04;100914.16;;;12.40;100.00
65758;BME280;52495;52.208;5.158;2023-05-10T06:13:31;100909.13;;;12.34;100.00
65758;BME280;52495;52.208;5.158;2023-05-10T06:16:00;100909.94;;;12.36;100.00
65758;BME280;52495;52.208;5.158;2023-05-10T06:18:28;100917.78;;;12.33;100.00
65758;BME280;52495;52.208;5.158;2023-05-10T06:20:55;100919.63;;;12.27;100.00
65758;BME280;52495;52.208;5.158;2023-05-10T06:23:22;100928.34;;;12.23;100.00
65758;BME280;52495;52.208;5.158;2023-05-10T06:25:51;100920.66;;;12.20;100.00
65758;BME280;52495;52.208;5.158;2023-05-10T06:28:17;100928.28;;;12.26;100.00
65758;BME280;52495;52.208;5.158;2023-05-10T06:30:44;100919.81;;;12.20;100.00
65758;BME280;52495;52.208;5.158;2023-05-10T06:33:11;100923.94;;;12.27;100.00
65758;BME280;52495;52.208;5.158;2023-05-10T06:35:40;100919.38;;;12.38;100.00
65758;BME280;52495;52.208;5.158;2023-05-10T06:38:06;100916.44;;;12.16;100.00
65758;BME280;52495;52.208;5.158;2023-05-10T06:40:33;100915.06;;;12.39;100.00
65758;BME280;52495;52.208;5.158;2023-05-10T06:43:01;100918.41;;;12.42;100.00
65758;BME280;52495;52.208;5.158;2023-05-10T06:45:28;100925.94;;;12.53;100.00
65758;BME280;52495;52.208;5.158;2023-05-10T06:47:55;100924.66;;;12.71;100.00
65758;BME280;52495;52.208;5.158;2023-05-10T06:50:22;100925.59;;;12.67;100.00
65758;BME280;52495;52.208;5.158;2023-05-10T06:52:50;100925.53;;;12.70;100.00
65758;BME280;52495;52.208;5.158;2023-05-10T06:55:17;100922.50;;;12.87;100.00
65758;BME280;52495;52.208;5.158;2023-05-10T06:57:44;100926.72;;;12.92;100.00
65758;BME280;52495;52.208;5.158;2023-05-10T07:00:11;100930.34;;;12.84;100.00
65758;BME280;52495;52.208;5.158;2023-05-10T07:02:38;100928.44;;;12.91;100.00
65758;BME280;52495;52.208;5.158;2023-05-10T07:05:06;100936.16;;;12.94;100.00
65758;BME280;52495;52.208;5.158;2023-05-10T07:07:32;100939.53;;;12.98;100.00
65758;BME280;52495;52.208;5.158;2023-05-10T07:10:01;100948.53;;;12.83;100.00
65758;BME280;52495;52.208;5.158;2023-05-10T07:12:28;100946.28;;;12.69;100.00
65758;BME280;52495;52.208;5.158;2023-05-10T07:14:55;100951.28;;;12.77;100.00
65758;BME280;52495;52.208;5.158;2023-05-10T07:17:22;100952.06;;;12.80;100.00
65758;BME280;52495;52.208;5.158;2023-05-10T07:19:48;100952.09;;;12.79;100.00
65758;BME280;52495;52.208;5.158;2023-05-10T07:22:16;100954.78;;;12.74;100.00
65758;BME280;52495;52.208;5.158;2023-05-10T07:24:43;100947.97;;;12.70;100.00
65758;BME280;52495;52.208;5.158;2023-05-10T07:27:11;100948.97;;;12.64;100.00
65758;BME280;52495;52.208;5.158;2023-05-10T07:29:38;100946.28;;;12.69;100.00
65758;BME280;52495;52.208;5.158;2023-05-10T07:32:05;100957.19;;;12.82;100.00
65758;BME280;52495;52.208;5.158;2023-05-10T07:34:32;100968.31;;;12.85;100.00
65758;BME280;52495;52.208;5.158;2023-05-10T07:36:59;100962.31;;;12.83;100.00
65758;BME280;52495;52.208;5.158;2023-05-10T07:39:26;100977.03;;;12.83;100.00
65758;BME280;52495;52.208;5.158;2023-05-10T07:41:53;100972.19;;;12.69;100.00
65758;BME280;52495;52.208;5.158;2023-05-10T07:44:21;100979.66;;;12.81;100.00
65758;BME280;52495;52.208;5.158;2023-05-10T07:46:48;100977.09;;;12.80;100.00
65758;BME280;52495;52.208;5.158;2023-05-10T07:49:15;100979.56;;;12.84;100.00
65758;BME280;52495;52.208;5.158;2023-05-10T07:51:42;100980.47;;;12.83;100.00
65758;BME280;52495;52.208;5.158;2023-05-10T07:54:09;100983.81;;;12.88;100.00
65758;BME280;52495;52.208;5.158;2023-05-10T07:56:36;100958.09;;;12.81;100.00
65758;BME280;52495;52.208;5.158;2023-05-10T07:59:03;100971.78;;;12.86;100.00
65758;BME280;52495;52.208;5.158;2023-05-10T08:01:33;100977.50;;;12.99;100.00
65758;BME280;52495;52.208;5.158;2023-05-10T08:04:01;100967.69;;;12.75;100.00
65758;BME280;52495;52.208;5.158;2023-05-10T08:06:28;100963.94;;;12.89;100.00
65758;BME280;52495;52.208;5.158;2023-05-10T08:08:55;100980.06;;;13.00;100.00
65758;BME280;52495;52.208;5.158;2023-05-10T08:11:22;100979.88;;;13.06;100.00
65758;BME280;52495;52.208;5.158;2023-05-10T08:13:50;101000.34;;;13.17;100.00
65758;BME280;52495;52.208;5.158;2023-05-10T08:16:17;100996.59;;;13.31;100.00
65758;BME280;52495;52.208;5.158;2023-05-10T08:18:46;100999.88;;;13.38;100.00
65758;BME280;52495;52.208;5.158;2023-05-10T08:21:14;100996.31;;;13.42;100.00
65758;BME280;52495;52.208;5.158;2023-05-10T08:23:42;101005.69;;;13.47;100.00
65758;BME280;52495;52.208;5.158;2023-05-10T08:26:09;101008.03;;;13.57;100.00
65758;BME280;52495;52.208;5.158;2023-05-10T08:28:46;101012.44;;;13.53;100.00
65758;BME280;52495;52.208;5.158;2023-05-10T08:31:13;101011.28;;;13.65;100.00
65758;BME280;52495;52.208;5.158;2023-05-10T08:33:40;101014.34;;;13.79;99.77
65758;BME280;52495;52.208;5.158;2023-05-10T08:36:08;101003.22;;;13.74;99.90
65758;BME280;52495;52.208;5.158;2023-05-10T08:38:35;101015.03;;;13.85;98.82
65758;BME280;52495;52.208;5.158;2023-05-10T08:41:20;101003.34;;;13.70;97.93
65758;BME280;52495;52.208;5.158;2023-05-10T08:43:50;101005.09;;;13.69;96.54
65758;BME280;52495;52.208;5.158;2023-05-10T08:46:18;101006.56;;;13.78;96.33
65758;BME280;52495;52.208;5.158;2023-05-10T08:48:46;101031.31;;;13.91;96.13
65758;BME280;52495;52.208;5.158;2023-05-10T08:51:18;101029.47;;;13.95;95.90
65758;BME280;52495;52.208;5.158;2023-05-10T08:53:47;101029.09;;;14.09;97.00
65758;BME280;52495;52.208;5.158;2023-05-10T08:56:15;101033.09;;;14.19;97.34
65758;BME280;52495;52.208;5.158;2023-05-10T08:58:43;101027.78;;;14.24;96.45
65758;BME280;52495;52.208;5.158;2023-05-10T09:01:10;101033.78;;;14.26;95.26
65758;BME280;52495;52.208;5.158;2023-05-10T09:03:39;101018.25;;;14.24;96.43
65758;BME280;52495;52.208;5.158;2023-05-10T09:06:06;101037.53;;;14.46;96.15
65758;BME280;52495;52.208;5.158;2023-05-10T09:08:36;101033.38;;;14.40;95.21
65758;BME280;52495;52.208;5.158;2023-05-10T09:11:04;101030.81;;;14.38;94.16
65758;BME280;52495;52.208;5.158;2023-05-10T09:13:31;101019.09;;;14.25;92.99
65758;BME280;52495;52.208;5.158;2023-05-10T09:15:59;101039.25;;;14.45;94.32
65758;BME280;52495;52.208;5.158;2023-05-10T09:18:26;101022.84;;;14.45;94.16
65758;BME280;52495;52.208;5.158;2023-05-10T09:20:54;101038.00;;;14.59;94.03
65758;BME280;52495;52.208;5.158;2023-05-10T09:23:20;101050.59;;;14.72;92.88
65758;BME280;52495;52.208;5.158;2023-05-10T09:26:01;101049.34;;;14.84;90.12
65758;BME280;52495;52.208;5.158;2023-05-10T09:28:31;101053.59;;;14.87;89.66
65758;BME280;52495;52.208;5.158;2023-05-10T09:30:58;101056.63;;;15.01;90.43
65758;BME280;52495;52.208;5.158;2023-05-10T09:33:25;101062.22;;;15.16;90.34
65758;BME280;52495;52.208;5.158;2023-05-10T09:35:52;101047.19;;;15.24;88.60
65758;BME280;52495;52.208;5.158;2023-05-10T09:38:19;101058.22;;;15.32;87.51
65758;BME280;52495;52.208;5.158;2023-05-10T09:40:52;101053.41;;;15.20;85.72
65758;BME280;52495;52.208;5.158;2023-05-10T09:43:20;101043.31;;;15.11;86.53
65758;BME280;52495;52.208;5.158;2023-05-10T09:45:48;101053.41;;;15.20;87.20
65758;BME280;52495;52.208;5.158;2023-05-10T09:48:15;101062.38;;;15.11;87.83
65758;BME280;52495;52.208;5.158;2023-05-10T09:50:42;101067.88;;;15.02;88.07
65758;BME280;52495;52.208;5.158;2023-05-10T09:53:09;101051.56;;;14.97;89.09
65758;BME280;52495;52.208;5.158;2023-05-10T09:55:43;101074.44;;;15.14;90.03
65758;BME280;52495;52.208;5.158;2023-05-10T09:58:12;101065.56;;;15.20;90.03
65758;BME280;52495;52.208;5.158;2023-05-10T10:00:41;101065.25;;;15.29;90.24
65758;BME280;52495;52.208;5.158;2023-05-10T10:03:12;101052.38;;;15.26;90.09
65758;BME280;52495;52.208;5.158;2023-05-10T10:05:40;101077.00;;;15.41;88.50
65758;BME280;52495;52.208;5.158;2023-05-10T10:08:07;101059.94;;;15.32;89.01
65758;BME280;52495;52.208;5.158;2023-05-10T10:10:35;101080.97;;;15.26;88.86
65758;BME280;52495;52.208;5.158;2023-05-10T10:13:02;101080.91;;;15.27;89.44
65758;BME280;52495;52.208;5.158;2023-05-10T10:15:32;101077.88;;;15.41;89.78
65758;BME280;52495;52.208;5.158;2023-05-10T10:18:00;101073.59;;;15.39;89.07
65758;BME280;52495;52.208;5.158;2023-05-10T10:20:28;101090.28;;;15.58;89.49
65758;BME280;52495;52.208;5.158;2023-05-10T10:22:55;101073.41;;;15.70;88.96
65758;BME280;52495;52.208;5.158;2023-05-10T10:25:22;101063.72;;;15.74;86.32
65758;BME280;52495;52.208;5.158;2023-05-10T10:28:14;101085.31;;;15.77;83.86
65758;BME280;52495;52.208;5.158;2023-05-10T10:31:03;101081.44;;;15.89;83.70
65758;BME280;52495;52.208;5.158;2023-05-10T10:33:51;101078.63;;;15.96;82.80
65758;BME280;52495;52.208;5.158;2023-05-10T10:36:22;101078.53;;;15.97;83.29
65758;BME280;52495;52.208;5.158;2023-05-10T10:39:00;101082.72;;;16.03;83.49
65758;BME280;52495;52.208;5.158;2023-05-10T10:41:31;101079.94;;;16.07;83.12
65758;BME280;52495;52.208;5.158;2023-05-10T10:44:23;101084.16;;;16.10;83.67
65758;BME280;52495;52.208;5.158;2023-05-10T10:47:20;101079.88;;;16.09;81.77
65758;BME280;52495;52.208;5.158;2023-05-10T10:49:51;101085.97;;;16.08;80.73
65758;BME280;52495;52.208;5.158;2023-05-10T10:52:23;101095.03;;;15.98;80.75
65758;BME280;52495;52.208;5.158;2023-05-10T10:55:03;101089.66;;;16.02;82.04
65758;BME280;52495;52.208;5.158;2023-05-10T10:57:43;101075.00;;;15.74;80.95
65758;BME280;52495;52.208;5.158;2023-05-10T11:00:21;101078.97;;;15.86;82.13
65758;BME280;52495;52.208;5.158;2023-05-10T11:02:50;101090.34;;;15.82;80.18
65758;BME280;52495;52.208;5.158;2023-05-10T11:05:33;101092.25;;;15.77;81.19
65758;BME280;52495;52.208;5.158;2023-05-10T11:08:06;101096.75;;;15.72;81.80
65758;BME280;52495;52.208;5.158;2023-05-10T11:10:34;101095.41;;;15.87;81.53
65758;BME280;52495;52.208;5.158;2023-05-10T11:13:02;101093.84;;;15.81;82.11
65758;BME280;52495;52.208;5.158;2023-05-10T11:15:29;101106.81;;;15.83;83.19
65758;BME280;52495;52.208;5.158;2023-05-10T11:17:57;101083.75;;;15.72;83.54
65758;BME280;52495;52.208;5.158;2023-05-10T11:20:27;101102.13;;;15.67;83.80
65758;BME280;52495;52.208;5.158;2023-05-10T11:23:11;101099.31;;;15.48;84.86
65758;BME280;52495;52.208;5.158;2023-05-10T11:25:42;101107.22;;;15.45;84.68
65758;BME280;52495;52.208;5.158;2023-05-10T11:28:10;101097.56;;;15.48;85.28
65758;BME280;52495;52.208;5.158;2023-05-10T11:30:38;101101.03;;;15.49;84.95
65758;BME280;52495;52.208;5.158;2023-05-10T11:33:06;101107.50;;;15.62;84.32
65758;BME280;52495;52.208;5.158;2023-05-10T11:35:37;101108.09;;;15.71;84.37
65758;BME280;52495;52.208;5.158;2023-05-10T11:38:06;101112.38;;;15.72;83.22
65758;BME280;52495;52.208;5.158;2023-05-10T11:40:33;101113.19;;;15.74;83.29
65758;BME280;52495;52.208;5.158;2023-05-10T11:43:02;101109.56;;;15.78;83.39
65758;BME280;52495;52.208;5.158;2023-05-10T11:45:29;101111.34;;;15.77;84.25
65758;BME280;52495;52.208;5.158;2023-05-10T11:47:57;101105.09;;;15.82;84.38
65758;BME280;52495;52.208;5.158;2023-05-10T11:50:25;101111.78;;;15.90;83.97
65758;BME280;52495;52.208;5.158;2023-05-10T11:52:52;101115.34;;;15.88;82.84
65758;BME280;52495;52.208;5.158;2023-05-10T11:55:19;101117.13;;;15.60;83.04
65758;BME280;52495;52.208;5.158;2023-05-10T11:57:46;101115.91;;;15.71;83.50
65758;BME280;52495;52.208;5.158;2023-05-10T12:00:15;101117.72;;;15.69;83.68
65758;BME280;52495;52.208;5.158;2023-05-10T12:02:42;101120.97;;;15.75;83.68
65758;BME280;52495;52.208;5.158;2023-05-10T12:05:09;101122.25;;;15.89;83.56
65758;BME280;52495;52.208;5.158;2023-05-10T12:07:37;101117.75;;;15.94;82.87
65758;BME280;52495;52.208;5.158;2023-05-10T12:10:05;101121.81;;;16.01;83.38
65758;BME280;52495;52.208;5.158;2023-05-10T12:12:39;101116.44;;;16.06;82.30
65758;BME280;52495;52.208;5.158;2023-05-10T12:15:11;101117.81;;;16.16;82.63
65758;BME280;52495;52.208;5.158;2023-05-10T12:17:39;101124.00;;;16.14;81.90
65758;BME280;52495;52.208;5.158;2023-05-10T12:20:20;101111.63;;;16.19;81.99
65758;BME280;52495;52.208;5.158;2023-05-10T12:22:50;101126.09;;;16.28;81.79
65758;BME280;52495;52.208;5.158;2023-05-10T12:25:18;101115.22;;;16.16;81.26
65758;BME280;52495;52.208;5.158;2023-05-10T12:27:51;101127.00;;;16.27;81.47
65758;BME280;52495;52.208;5.158;2023-05-10T12:30:20;101122.69;;;16.26;80.99
65758;BME280;52495;52.208;5.158;2023-05-10T12:32:49;101121.81;;;16.01;82.04
65758;BME280;52495;52.208;5.158;2023-05-10T12:35:16;101121.53;;;16.09;82.81
65758;BME280;52495;52.208;5.158;2023-05-10T12:37:46;101124.84;;;16.14;82.96
65758;BME280;52495;52.208;5.158;2023-05-10T12:40:13;101127.03;;;16.01;83.17
65758;BME280;52495;52.208;5.158;2023-05-10T12:42:40;101130.97;;;15.88;85.08
65758;BME280;52495;52.208;5.158;2023-05-10T12:45:08;101108.22;;;15.68;86.01
65758;BME280;52495;52.208;5.158;2023-05-10T12:47:35;101121.06;;;15.72;85.90
65758;BME280;52495;52.208;5.158;2023-05-10T12:50:05;101137.22;;;15.82;86.26
65758;BME280;52495;52.208;5.158;2023-05-10T12:52:32;101133.09;;;15.75;86.67
65758;BME280;52495;52.208;5.158;2023-05-10T12:54:59;101140.59;;;15.59;87.41